Piraeus, Greece
Current Conditions -  °F | °C
As of 12:20 PM on Saturday 29 Nov 2014 (Local Time) from LGEL Reporting Station
Broken Clouds Broken Clouds  
Wind Chill: 64°   Ceiling: 7000
Heat Index: 64°   Visibility: 6mi
Dew Point: 55°   Wind: 0mph
Humidity: 73%   Direction: NA
Pressure: 30.24"   Gusts: NA
Location:  37.95°N, 23.63°E
Report Text: LGEL 290920Z 00000KT 9999 FEW015 SCT025 BKN070 18/13 Q1024
Loading
Personal Weather Stations






























Interactive Weather Map New forecast layout! Learn more

10-Day Weather Forecast

Advertisements
Track Severe Weather on mobile